sensor_id;sensor_type;location;lat;lon;timestamp;pressure;altitude;pressure_sealevel;temperature;humidity
26635;BME280;14490;54.208;37.686;2022-07-10T00:01:49;98603.19;;;21.78;86.75
26635;BME280;14490;54.208;37.686;2022-07-10T00:04:17;98618.53;;;21.79;86.38
26635;BME280;14490;54.208;37.686;2022-07-10T00:06:45;98575.41;;;21.68;85.91
26635;BME280;14490;54.208;37.686;2022-07-10T00:09:13;98570.97;;;21.67;85.38
26635;BME280;14490;54.208;37.686;2022-07-10T00:11:43;98549.94;;;21.61;85.09
26635;BME280;14490;54.208;37.686;2022-07-10T00:14:10;98556.25;;;21.68;84.68
26635;BME280;14490;54.208;37.686;2022-07-10T00:16:38;98586.34;;;21.75;84.43
26635;BME280;14490;54.208;37.686;2022-07-10T00:19:06;98619.84;;;21.70;84.60
26635;BME280;14490;54.208;37.686;2022-07-10T00:21:33;98665.75;;;21.82;84.25
26635;BME280;14490;54.208;37.686;2022-07-10T00:24:01;98687.25;;;21.78;84.17
26635;BME280;14490;54.208;37.686;2022-07-10T00:26:32;98677.59;;;21.69;84.44
26635;BME280;14490;54.208;37.686;2022-07-10T00:29:02;98680.31;;;21.69;84.43
26635;BME280;14490;54.208;37.686;2022-07-10T00:31:30;98695.28;;;21.73;84.33
26635;BME280;14490;54.208;37.686;2022-07-10T00:33:58;98690.63;;;21.73;83.83
26635;BME280;14490;54.208;37.686;2022-07-10T00:36:25;98692.72;;;21.78;83.56
26635;BME280;14490;54.208;37.686;2022-07-10T00:38:53;98690.16;;;21.83;83.29
26635;BME280;14490;54.208;37.686;2022-07-10T00:41:21;98670.38;;;21.81;83.55
26635;BME280;14490;54.208;37.686;2022-07-10T00:43:52;98667.44;;;21.76;83.91
26635;BME280;14490;54.208;37.686;2022-07-10T00:46:22;98676.56;;;21.63;84.95
26635;BME280;14490;54.208;37.686;2022-07-10T00:48:50;98681.00;;;21.51;85.82
26635;BME280;14490;54.208;37.686;2022-07-10T00:51:20;98691.13;;;21.51;86.38
26635;BME280;14490;54.208;37.686;2022-07-10T00:53:49;98682.72;;;21.39;86.78
26635;BME280;14490;54.208;37.686;2022-07-10T00:56:18;98686.09;;;21.35;86.66
26635;BME280;14490;54.208;37.686;2022-07-10T00:58:48;98665.03;;;21.35;86.24
26635;BME280;14490;54.208;37.686;2022-07-10T01:01:16;98645.69;;;21.23;86.07
26635;BME280;14490;54.208;37.686;2022-07-10T01:03:46;98650.34;;;21.23;86.08
26635;BME280;14490;54.208;37.686;2022-07-10T01:06:14;98644.00;;;21.22;86.24
26635;BME280;14490;54.208;37.686;2022-07-10T01:08:43;98656.66;;;21.17;86.26
26635;BME280;14490;54.208;37.686;2022-07-10T01:11:13;98649.47;;;21.22;85.89
26635;BME280;14490;54.208;37.686;2022-07-10T01:13:42;98642.53;;;21.27;85.22
26635;BME280;14490;54.208;37.686;2022-07-10T01:16:10;98630.13;;;21.24;84.73
26635;BME280;14490;54.208;37.686;2022-07-10T01:18:38;98637.91;;;21.34;84.35
26635;BME280;14490;54.208;37.686;2022-07-10T01:21:22;98634.31;;;21.33;83.95
26635;BME280;14490;54.208;37.686;2022-07-10T01:23:51;98629.69;;;21.34;84.01
26635;BME280;14490;54.208;37.686;2022-07-10T01:26:19;98575.84;;;20.95;84.14
26635;BME280;14490;54.208;37.686;2022-07-10T01:28:50;98607.81;;;21.27;83.95
26635;BME280;14490;54.208;37.686;2022-07-10T01:31:18;98564.06;;;21.01;84.11
26635;BME280;14490;54.208;37.686;2022-07-10T01:33:46;98607.38;;;21.30;84.32
26635;BME280;14490;54.208;37.686;2022-07-10T01:36:16;98560.88;;;21.04;84.17
26635;BME280;14490;54.208;37.686;2022-07-10T01:38:43;98550.19;;;20.96;84.36
26635;BME280;14490;54.208;37.686;2022-07-10T01:41:11;98602.53;;;21.32;84.33
26635;BME280;14490;54.208;37.686;2022-07-10T01:43:39;98596.88;;;21.27;83.98
26635;BME280;14490;54.208;37.686;2022-07-10T01:46:09;98586.53;;;21.22;83.98
26635;BME280;14490;54.208;37.686;2022-07-10T01:48:38;98573.09;;;21.14;83.50
26635;BME280;14490;54.208;37.686;2022-07-10T01:51:07;98565.09;;;21.13;83.67
26635;BME280;14490;54.208;37.686;2022-07-10T01:53:39;98556.06;;;21.06;84.08
26635;BME280;14490;54.208;37.686;2022-07-10T01:56:08;98574.56;;;21.17;84.00
26635;BME280;14490;54.208;37.686;2022-07-10T01:58:37;98569.31;;;21.15;84.02
26635;BME280;14490;54.208;37.686;2022-07-10T02:01:06;98566.78;;;21.14;84.26
26635;BME280;14490;54.208;37.686;2022-07-10T02:03:34;98571.84;;;21.17;84.06
26635;BME280;14490;54.208;37.686;2022-07-10T02:06:19;98566.34;;;21.17;83.82
26635;BME280;14490;54.208;37.686;2022-07-10T02:08:48;98558.16;;;21.17;83.77
26635;BME280;14490;54.208;37.686;2022-07-10T02:11:16;98556.47;;;21.16;83.73
26635;BME280;14490;54.208;37.686;2022-07-10T02:13:44;98555.44;;;21.10;83.84
26635;BME280;14490;54.208;37.686;2022-07-10T02:16:12;98551.44;;;21.00;83.64
26635;BME280;14490;54.208;37.686;2022-07-10T02:18:40;98547.63;;;21.01;83.43
26635;BME280;14490;54.208;37.686;2022-07-10T02:21:09;98546.00;;;20.93;83.14
26635;BME280;14490;54.208;37.686;2022-07-10T02:23:37;98513.19;;;20.80;82.82
26635;BME280;14490;54.208;37.686;2022-07-10T02:26:08;98542.81;;;21.03;82.26
26635;BME280;14490;54.208;37.686;2022-07-10T02:28:36;98522.44;;;20.86;81.37
26635;BME280;14490;54.208;37.686;2022-07-10T02:31:05;98529.56;;;21.00;81.01
26635;BME280;14490;54.208;37.686;2022-07-10T02:33:32;98536.06;;;21.05;81.05
26635;BME280;14490;54.208;37.686;2022-07-10T02:36:04;98506.66;;;20.94;80.89
26635;BME280;14490;54.208;37.686;2022-07-10T02:38:32;98543.16;;;21.26;80.57
26635;BME280;14490;54.208;37.686;2022-07-10T02:40:59;98513.50;;;21.23;80.27
26635;BME280;14490;54.208;37.686;2022-07-10T02:43:29;98498.56;;;21.19;79.63
26635;BME280;14490;54.208;37.686;2022-07-10T02:45:57;98522.06;;;21.40;78.93
26635;BME280;14490;54.208;37.686;2022-07-10T02:48:25;98540.97;;;21.48;78.63
26635;BME280;14490;54.208;37.686;2022-07-10T02:50:54;98494.53;;;21.28;78.36
26635;BME280;14490;54.208;37.686;2022-07-10T02:53:21;98488.63;;;21.31;78.04
26635;BME280;14490;54.208;37.686;2022-07-10T02:55:49;98552.34;;;21.83;77.58
26635;BME280;14490;54.208;37.686;2022-07-10T02:58:17;98560.28;;;22.04;77.06
26635;BME280;14490;54.208;37.686;2022-07-10T03:00:46;98562.22;;;22.28;76.49
26635;BME280;14490;54.208;37.686;2022-07-10T03:03:14;98560.81;;;22.44;76.12
26635;BME280;14490;54.208;37.686;2022-07-10T03:05:43;98496.94;;;22.18;75.69
26635;BME280;14490;54.208;37.686;2022-07-10T03:08:11;98506.06;;;22.37;75.63
26635;BME280;14490;54.208;37.686;2022-07-10T03:10:39;98569.72;;;22.89;75.45
26635;BME280;14490;54.208;37.686;2022-07-10T03:13:07;98554.53;;;22.86;75.36
26635;BME280;14490;54.208;37.686;2022-07-10T03:15:36;98491.00;;;22.46;75.35
26635;BME280;14490;54.208;37.686;2022-07-10T03:18:05;98562.69;;;22.93;75.14
26635;BME280;14490;54.208;37.686;2022-07-10T03:20:33;98566.97;;;22.89;75.30
26635;BME280;14490;54.208;37.686;2022-07-10T03:23:04;98530.25;;;22.65;75.05
26635;BME280;14490;54.208;37.686;2022-07-10T03:25:32;98565.16;;;22.82;75.11
26635;BME280;14490;54.208;37.686;2022-07-10T03:27:59;98566.81;;;22.83;74.74
26635;BME280;14490;54.208;37.686;2022-07-10T03:30:28;98564.84;;;22.91;74.56
26635;BME280;14490;54.208;37.686;2022-07-10T03:32:55;98554.91;;;22.90;74.79
26635;BME280;14490;54.208;37.686;2022-07-10T03:35:27;98562.03;;;22.97;74.86
26635;BME280;14490;54.208;37.686;2022-07-10T03:37:59;98562.88;;;22.98;74.49
26635;BME280;14490;54.208;37.686;2022-07-10T03:40:27;98562.56;;;23.06;74.34
26635;BME280;14490;54.208;37.686;2022-07-10T03:42:55;98558.22;;;23.16;73.95
26635;BME280;14490;54.208;37.686;2022-07-10T03:45:23;98556.47;;;23.22;73.42
26635;BME280;14490;54.208;37.686;2022-07-10T03:47:50;98557.84;;;23.31;73.10
26635;BME280;14490;54.208;37.686;2022-07-10T03:50:18;98536.81;;;23.25;73.00
26635;BME280;14490;54.208;37.686;2022-07-10T03:52:48;98549.53;;;23.37;73.21
26635;BME280;14490;54.208;37.686;2022-07-10T03:55:15;98506.97;;;23.10;72.89
26635;BME280;14490;54.208;37.686;2022-07-10T03:57:43;98537.19;;;23.28;73.24
26635;BME280;14490;54.208;37.686;2022-07-10T04:00:24;98521.78;;;23.27;73.29
26635;BME280;14490;54.208;37.686;2022-07-10T04:02:56;98503.09;;;23.18;72.98
26635;BME280;14490;54.208;37.686;2022-07-10T04:05:25;98535.38;;;23.41;72.88
26635;BME280;14490;54.208;37.686;2022-07-10T04:07:56;98536.13;;;23.48;72.94
26635;BME280;14490;54.208;37.686;2022-07-10T04:10:24;98514.66;;;23.38;72.93
26635;BME280;14490;54.208;37.686;2022-07-10T04:12:53;98482.97;;;23.24;72.80
26635;BME280;14490;54.208;37.686;2022-07-10T04:15:25;98541.63;;;23.77;72.90
26635;BME280;14490;54.208;37.686;2022-07-10T04:17:53;98512.81;;;23.98;71.87
26635;BME280;14490;54.208;37.686;2022-07-10T04:20:22;98508.91;;;24.17;71.14
26635;BME280;14490;54.208;37.686;2022-07-10T04:22:50;98537.53;;;24.51;70.88
26635;BME280;14490;54.208;37.686;2022-07-10T04:25:20;98544.25;;;24.78;70.22
26635;BME280;14490;54.208;37.686;2022-07-10T04:27:48;98519.88;;;24.70;69.41
26635;BME280;14490;54.208;37.686;2022-07-10T04:30:15;98500.13;;;24.73;69.31
26635;BME280;14490;54.208;37.686;2022-07-10T04:32:43;98544.75;;;25.10;68.83
26635;BME280;14490;54.208;37.686;2022-07-10T04:35:11;98547.16;;;25.07;68.48
26635;BME280;14490;54.208;37.686;2022-07-10T04:37:43;98568.59;;;25.16;68.40
26635;BME280;14490;54.208;37.686;2022-07-10T04:40:12;98564.59;;;25.24;68.15
26635;BME280;14490;54.208;37.686;2022-07-10T04:42:42;98569.50;;;25.33;67.67
26635;BME280;14490;54.208;37.686;2022-07-10T04:45:10;98547.75;;;25.09;67.75
26635;BME280;14490;54.208;37.686;2022-07-10T04:47:43;98564.97;;;25.16;67.51
26635;BME280;14490;54.208;37.686;2022-07-10T04:50:11;98519.66;;;24.83;67.87
26635;BME280;14490;54.208;37.686;2022-07-10T04:52:44;98538.56;;;24.91;68.36
26635;BME280;14490;54.208;37.686;2022-07-10T04:55:12;98528.97;;;24.82;68.62
26635;BME280;14490;54.208;37.686;2022-07-10T04:57:42;98560.19;;;24.99;69.20
26635;BME280;14490;54.208;37.686;2022-07-10T05:00:11;98558.88;;;24.90;69.40
26635;BME280;14490;54.208;37.686;2022-07-10T05:02:39;98558.63;;;24.80;69.87
26635;BME280;14490;54.208;37.686;2022-07-10T05:05:08;98556.69;;;24.69;70.26
26635;BME280;14490;54.208;37.686;2022-07-10T05:07:36;98505.22;;;24.35;70.70
26635;BME280;14490;54.208;37.686;2022-07-10T05:10:05;98527.50;;;24.45;71.11
26635;BME280;14490;54.208;37.686;2022-07-10T05:12:33;98528.72;;;24.49;71.22
26635;BME280;14490;54.208;37.686;2022-07-10T05:15:04;98473.44;;;24.16;70.90
26635;BME280;14490;54.208;37.686;2022-07-10T05:17:33;98529.88;;;24.53;70.46
26635;BME280;14490;54.208;37.686;2022-07-10T05:20:06;98528.97;;;24.59;69.94
26635;BME280;14490;54.208;37.686;2022-07-10T05:22:36;98521.88;;;24.63;69.36
26635;BME280;14490;54.208;37.686;2022-07-10T05:25:04;98526.69;;;24.68;68.71
26635;BME280;14490;54.208;37.686;2022-07-10T05:27:33;98519.38;;;24.73;68.38
26635;BME280;14490;54.208;37.686;2022-07-10T05:30:05;98515.56;;;24.74;67.85
26635;BME280;14490;54.208;37.686;2022-07-10T05:32:42;98512.81;;;24.74;67.59
26635;BME280;14490;54.208;37.686;2022-07-10T05:35:12;98522.72;;;24.75;67.36
26635;BME280;14490;54.208;37.686;2022-07-10T05:37:42;98473.09;;;24.59;67.28
26635;BME280;14490;54.208;37.686;2022-07-10T05:40:15;98461.00;;;24.60;67.32
26635;BME280;14490;54.208;37.686;2022-07-10T05:42:50;98504.31;;;24.87;67.28
26635;BME280;14490;54.208;37.686;2022-07-10T05:45:24;98490.69;;;24.92;67.19
26635;BME280;14490;54.208;37.686;2022-07-10T05:47:54;98476.22;;;24.85;67.25
26635;BME280;14490;54.208;37.686;2022-07-10T05:50:22;98422.00;;;24.63;67.07
26635;BME280;14490;54.208;37.686;2022-07-10T05:52:53;98463.25;;;24.97;66.66
26635;BME280;14490;54.208;37.686;2022-07-10T05:55:23;98454.00;;;25.15;66.13
26635;BME280;14490;54.208;37.686;2022-07-10T05:57:52;98489.09;;;25.48;66.08
26635;BME280;14490;54.208;37.686;2022-07-10T06:00:28;98411.63;;;25.16;66.11
26635;BME280;14490;54.208;37.686;2022-07-10T06:03:18;98414.81;;;25.25;65.73
26635;BME280;14490;54.208;37.686;2022-07-10T06:05:51;98467.19;;;25.53;65.13
26635;BME280;14490;54.208;37.686;2022-07-10T06:08:22;98488.06;;;25.77;64.53
26635;BME280;14490;54.208;37.686;2022-07-10T06:10:53;98491.88;;;25.76;64.54
26635;BME280;14490;54.208;37.686;2022-07-10T06:13:21;98484.81;;;25.80;63.97
26635;BME280;14490;54.208;37.686;2022-07-10T06:15:59;98490.41;;;25.85;63.75
26635;BME280;14490;54.208;37.686;2022-07-10T06:21:05;98485.97;;;25.84;63.70
26635;BME280;14490;54.208;37.686;2022-07-10T06:23:34;98474.00;;;25.79;63.58
26635;BME280;14490;54.208;37.686;2022-07-10T06:26:03;98413.16;;;25.52;63.03
26635;BME280;14490;54.208;37.686;2022-07-10T06:28:34;98471.19;;;25.90;62.86
26635;BME280;14490;54.208;37.686;2022-07-10T06:31:07;98443.47;;;25.80;62.87
26635;BME280;14490;54.208;37.686;2022-07-10T06:33:35;98470.78;;;25.98;62.65
26635;BME280;14490;54.208;37.686;2022-07-10T06:36:09;98399.47;;;25.57;62.48
26635;BME280;14490;54.208;37.686;2022-07-10T06:38:38;98468.69;;;26.05;62.25
26635;BME280;14490;54.208;37.686;2022-07-10T06:41:08;98391.81;;;25.59;62.47
26635;BME280;14490;54.208;37.686;2022-07-10T06:43:50;98396.34;;;25.65;62.19
26635;BME280;14490;54.208;37.686;2022-07-10T06:46:21;98429.94;;;25.95;62.24
26635;BME280;14490;54.208;37.686;2022-07-10T06:51:28;98434.44;;;26.01;62.66
26635;BME280;14490;54.208;37.686;2022-07-10T06:53:57;98476.34;;;26.32;62.84
26635;BME280;14490;54.208;37.686;2022-07-10T06:56:26;98470.25;;;26.46;62.28
26635;BME280;14490;54.208;37.686;2022-07-10T06:58:58;98414.44;;;26.23;61.83
26635;BME280;14490;54.208;37.686;2022-07-10T07:01:39;98469.53;;;26.73;60.56
26635;BME280;14490;54.208;37.686;2022-07-10T07:04:07;98466.03;;;26.77;60.32
26635;BME280;14490;54.208;37.686;2022-07-10T07:06:38;98466.78;;;26.89;59.67
26635;BME280;14490;54.208;37.686;2022-07-10T07:09:13;98413.09;;;26.63;59.07
26635;BME280;14490;54.208;37.686;2022-07-10T07:11:46;98457.47;;;26.95;58.48
26635;BME280;14490;54.208;37.686;2022-07-10T07:14:22;98450.94;;;27.01;58.64
26635;BME280;14490;54.208;37.686;2022-07-10T07:17:12;98452.72;;;27.12;57.83
26635;BME280;14490;54.208;37.686;2022-07-10T07:19:48;98428.00;;;27.01;57.52
26635;BME280;14490;54.208;37.686;2022-07-10T07:22:34;98450.31;;;27.21;57.60
26635;BME280;14490;54.208;37.686;2022-07-10T07:25:22;98380.28;;;26.84;57.25
26635;BME280;14490;54.208;37.686;2022-07-10T07:27:50;98451.25;;;27.27;56.78
26635;BME280;14490;54.208;37.686;2022-07-10T07:30:19;98453.50;;;27.30;56.53
26635;BME280;14490;54.208;37.686;2022-07-10T07:32:50;98439.28;;;27.21;56.05
26635;BME280;14490;54.208;37.686;2022-07-10T07:35:19;98442.44;;;27.30;55.82
26635;BME280;14490;54.208;37.686;2022-07-10T07:37:50;98447.69;;;27.31;55.47
26635;BME280;14490;54.208;37.686;2022-07-10T07:40:21;98443.56;;;27.34;55.68
26635;BME280;14490;54.208;37.686;2022-07-10T07:42:51;98414.63;;;27.14;55.69
26635;BME280;14490;54.208;37.686;2022-07-10T07:45:22;98444.75;;;27.38;55.97
26635;BME280;14490;54.208;37.686;2022-07-10T07:48:07;98422.00;;;27.31;55.96
26635;BME280;14490;54.208;37.686;2022-07-10T07:50:37;98436.53;;;27.43;56.11
26635;BME280;14490;54.208;37.686;2022-07-10T07:53:07;98441.81;;;27.44;56.09
26635;BME280;14490;54.208;37.686;2022-07-10T07:55:37;98406.97;;;27.22;55.68
26635;BME280;14490;54.208;37.686;2022-07-10T07:58:11;98403.69;;;27.25;55.97
26635;BME280;14490;54.208;37.686;2022-07-10T08:00:39;98388.09;;;27.13;55.75
26635;BME280;14490;54.208;37.686;2022-07-10T08:03:26;98391.50;;;27.21;55.99
26635;BME280;14490;54.208;37.686;2022-07-10T08:06:01;98374.94;;;27.21;56.25
26635;BME280;14490;54.208;37.686;2022-07-10T08:08:29;98427.88;;;27.61;56.06
26635;BME280;14490;54.208;37.686;2022-07-10T08:11:00;98439.81;;;27.66;55.63
26635;BME280;14490;54.208;37.686;2022-07-10T08:13:28;98410.63;;;27.49;55.13
26635;BME280;14490;54.208;37.686;2022-07-10T08:16:00;98423.00;;;27.68;54.53
26635;BME280;14490;54.208;37.686;2022-07-10T08:18:30;98411.06;;;27.62;53.75
26635;BME280;14490;54.208;37.686;2022-07-10T08:21:00;98409.69;;;27.65;53.85
26635;BME280;14490;54.208;37.686;2022-07-10T08:23:34;98430.94;;;27.91;53.45
26635;BME280;14490;54.208;37.686;2022-07-10T08:26:02;98439.06;;;28.03;53.54
26635;BME280;14490;54.208;37.686;2022-07-10T08:28:31;98433.94;;;28.11;53.80
26635;BME280;14490;54.208;37.686;2022-07-10T08:31:01;98441.47;;;28.21;53.82
26635;BME280;14490;54.208;37.686;2022-07-10T08:33:35;98390.63;;;27.95;53.73
26635;BME280;14490;54.208;37.686;2022-07-10T08:36:09;98433.47;;;28.25;53.97
26635;BME280;14490;54.208;37.686;2022-07-10T08:38:42;98437.63;;;28.27;53.78
26635;BME280;14490;54.208;37.686;2022-07-10T08:41:14;98377.94;;;27.99;53.89
26635;BME280;14490;54.208;37.686;2022-07-10T08:43:43;98378.50;;;28.01;53.37
26635;BME280;14490;54.208;37.686;2022-07-10T08:46:21;98380.06;;;27.92;53.64
26635;BME280;14490;54.208;37.686;2022-07-10T08:48:58;98416.03;;;28.24;53.58
26635;BME280;14490;54.208;37.686;2022-07-10T08:51:36;98386.38;;;28.14;53.54
26635;BME280;14490;54.208;37.686;2022-07-10T08:54:06;98409.81;;;28.39;53.44
26635;BME280;14490;54.208;37.686;2022-07-10T08:56:50;98393.22;;;28.44;52.86
26635;BME280;14490;54.208;37.686;2022-07-10T08:59:21;98359.69;;;28.40;52.06
26635;BME280;14490;54.208;37.686;2022-07-10T09:01:51;98403.97;;;28.77;51.59
26635;BME280;14490;54.208;37.686;2022-07-10T09:04:25;98362.66;;;28.65;50.75
26635;BME280;14490;54.208;37.686;2022-07-10T09:06:57;98412.97;;;29.09;50.78
26635;BME280;14490;54.208;37.686;2022-07-10T09:12:01;98359.16;;;28.90;50.83
26635;BME280;14490;54.208;37.686;2022-07-10T09:14:35;98378.63;;;29.15;50.26
26635;BME280;14490;54.208;37.686;2022-07-10T09:17:05;98388.13;;;29.24;50.30
26635;BME280;14490;54.208;37.686;2022-07-10T09:19:45;98335.09;;;29.01;50.25
26635;BME280;14490;54.208;37.686;2022-07-10T09:22:18;98368.16;;;29.27;50.40
26635;BME280;14490;54.208;37.686;2022-07-10T09:24:53;98371.19;;;29.21;50.18
26635;BME280;14490;54.208;37.686;2022-07-10T09:27:24;98400.66;;;29.47;50.09
26635;BME280;14490;54.208;37.686;2022-07-10T09:29:54;98395.97;;;29.53;50.07
26635;BME280;14490;54.208;37.686;2022-07-10T09:32:24;98320.44;;;29.10;49.90
26635;BME280;14490;54.208;37.686;2022-07-10T09:34:55;98392.94;;;29.54;49.98
26635;BME280;14490;54.208;37.686;2022-07-10T09:37:41;98360.44;;;29.35;50.07
26635;BME280;14490;54.208;37.686;2022-07-10T09:40:10;98391.84;;;29.60;49.87
26635;BME280;14490;54.208;37.686;2022-07-10T09:42:42;98377.69;;;29.62;49.57
26635;BME280;14490;54.208;37.686;2022-07-10T09:45:15;98350.47;;;29.49;49.52
26635;BME280;14490;54.208;37.686;2022-07-10T09:50:25;98369.66;;;29.60;49.66
26635;BME280;14490;54.208;37.686;2022-07-10T09:52:56;98371.31;;;29.76;49.11
26635;BME280;14490;54.208;37.686;2022-07-10T09:55:44;98361.09;;;29.82;48.85
26635;BME280;14490;54.208;37.686;2022-07-10T09:58:18;98324.72;;;29.68;49.13
26635;BME280;14490;54.208;37.686;2022-07-10T10:00:50;98353.88;;;29.96;48.84
26635;BME280;14490;54.208;37.686;2022-07-10T10:03:22;98348.88;;;29.93;49.23
26635;BME280;14490;54.208;37.686;2022-07-10T10:05:58;98341.09;;;30.05;49.17
26635;BME280;14490;54.208;37.686;2022-07-10T10:08:36;98352.19;;;30.10;48.63
26635;BME280;14490;54.208;37.686;2022-07-10T10:11:13;98384.94;;;30.44;48.27
26635;BME280;14490;54.208;37.686;2022-07-10T10:13:47;98383.25;;;30.53;48.35
26635;BME280;14490;54.208;37.686;2022-07-10T10:16:33;98336.09;;;30.27;48.55
26635;BME280;14490;54.208;37.686;2022-07-10T10:19:10;98334.16;;;30.23;47.91
26635;BME280;14490;54.208;37.686;2022-07-10T10:21:59;98374.94;;;30.58;47.92
26635;BME280;14490;54.208;37.686;2022-07-10T10:24:38;98375.75;;;30.63;47.81
26635;BME280;14490;54.208;37.686;2022-07-10T10:27:08;98378.22;;;30.65;47.75
26635;BME280;14490;54.208;37.686;2022-07-10T10:29:38;98339.94;;;30.47;47.23
26635;BME280;14490;54.208;37.686;2022-07-10T10:32:09;98376.81;;;30.72;46.65
26635;BME280;14490;54.208;37.686;2022-07-10T10:34:43;98348.81;;;30.54;46.61
26635;BME280;14490;54.208;37.686;2022-07-10T10:37:41;98382.06;;;30.84;46.08
26635;BME280;14490;54.208;37.686;2022-07-10T10:40:31;98339.34;;;30.70;46.07
26635;BME280;14490;54.208;37.686;2022-07-10T10:43:19;98362.53;;;31.04;44.96
26635;BME280;14490;54.208;37.686;2022-07-10T10:45:51;98316.50;;;30.83;44.53
26635;BME280;14490;54.208;37.686;2022-07-10T10:48:19;98297.06;;;30.78;43.86
26635;BME280;14490;54.208;37.686;2022-07-10T10:50:50;98376.34;;;31.29;43.62
26635;BME280;14490;54.208;37.686;2022-07-10T10:53:24;98347.19;;;31.22;43.49
26635;BME280;14490;54.208;37.686;2022-07-10T10:56:24;98370.69;;;31.45;43.14
26635;BME280;14490;54.208;37.686;2022-07-10T10:58:57;98377.91;;;31.51;43.36
26635;BME280;14490;54.208;37.686;2022-07-10T11:01:32;98347.94;;;31.32;43.43
26635;BME280;14490;54.208;37.686;2022-07-10T11:04:18;98333.69;;;31.44;42.95
26635;BME280;14490;54.208;37.686;2022-07-10T11:09:41;98376.56;;;32.21;41.60
26635;BME280;14490;54.208;37.686;2022-07-10T11:12:17;98374.59;;;32.50;41.71
26635;BME280;14490;54.208;37.686;2022-07-10T11:14:51;98382.47;;;32.72;41.47
26635;BME280;14490;54.208;37.686;2022-07-10T11:22:49;98380.28;;;32.69;40.41
26635;BME280;14490;54.208;37.686;2022-07-10T11:25:39;98332.75;;;32.31;39.65
26635;BME280;14490;54.208;37.686;2022-07-10T11:28:28;98350.72;;;32.15;39.63
26635;BME280;14490;54.208;37.686;2022-07-10T11:31:19;98341.13;;;31.92;40.12
26635;BME280;14490;54.208;37.686;2022-07-10T11:33:48;98366.44;;;31.96;39.99
26635;BME280;14490;54.208;37.686;2022-07-10T11:36:21;98360.41;;;31.84;40.30
26635;BME280;14490;54.208;37.686;2022-07-10T11:38:58;98359.38;;;31.75;40.35
26635;BME280;14490;54.208;37.686;2022-07-10T11:41:33;98354.59;;;31.80;39.71
26635;BME280;14490;54.208;37.686;2022-07-10T11:46:38;98300.94;;;31.75;40.69
26635;BME280;14490;54.208;37.686;2022-07-10T11:49:09;98359.75;;;31.97;40.28
26635;BME280;14490;54.208;37.686;2022-07-10T11:51:41;98370.19;;;31.81;40.97
26635;BME280;14490;54.208;37.686;2022-07-10T11:54:13;98311.91;;;31.17;40.96
26635;BME280;14490;54.208;37.686;2022-07-10T11:56:48;98376.91;;;31.26;41.58
26635;BME280;14490;54.208;37.686;2022-07-10T11:59:24;98379.81;;;30.96;42.11
26635;BME280;14490;54.208;37.686;2022-07-10T12:01:56;98348.56;;;30.45;41.71
26635;BME280;14490;54.208;37.686;2022-07-10T12:04:30;98351.91;;;30.22;42.58
26635;BME280;14490;54.208;37.686;2022-07-10T12:07:01;98401.03;;;30.26;43.42
26635;BME280;14490;54.208;37.686;2022-07-10T12:09:31;98400.47;;;29.89;44.25
26635;BME280;14490;54.208;37.686;2022-07-10T12:14:39;98398.72;;;29.48;45.58
26635;BME280;14490;54.208;37.686;2022-07-10T12:17:10;98400.34;;;29.28;46.31
26635;BME280;14490;54.208;37.686;2022-07-10T12:19:40;98399.19;;;29.24;47.03
26635;BME280;14490;54.208;37.686;2022-07-10T12:22:13;98395.00;;;29.12;47.48
26635;BME280;14490;54.208;37.686;2022-07-10T12:24:42;98363.56;;;28.86;48.13
26635;BME280;14490;54.208;37.686;2022-07-10T12:27:12;98378.03;;;28.93;48.35
26635;BME280;14490;54.208;37.686;2022-07-10T12:30:12;98377.16;;;28.88;48.97
26635;BME280;14490;54.208;37.686;2022-07-10T12:32:40;98389.09;;;28.93;48.86
26635;BME280;14490;54.208;37.686;2022-07-10T12:35:08;98380.25;;;28.96;48.67
26635;BME280;14490;54.208;37.686;2022-07-10T12:37:48;98366.66;;;28.95;48.51
26635;BME280;14490;54.208;37.686;2022-07-10T12:40:31;98366.16;;;29.08;48.55
26635;BME280;14490;54.208;37.686;2022-07-10T12:43:02;98390.94;;;29.40;48.57
26635;BME280;14490;54.208;37.686;2022-07-10T12:45:36;98344.94;;;29.39;48.18
26635;BME280;14490;54.208;37.686;2022-07-10T12:48:20;98345.25;;;29.62;47.65
26635;BME280;14490;54.208;37.686;2022-07-10T12:50:51;98394.66;;;30.06;47.44
26635;BME280;14490;54.208;37.686;2022-07-10T12:53:20;98335.00;;;29.98;46.53
26635;BME280;14490;54.208;37.686;2022-07-10T12:55:49;98378.00;;;30.46;46.17
26635;BME280;14490;54.208;37.686;2022-07-10T12:58:19;98371.03;;;30.64;45.53
26635;BME280;14490;54.208;37.686;2022-07-10T13:00:56;98367.59;;;30.87;45.17
26635;BME280;14490;54.208;37.686;2022-07-10T13:03:25;98365.63;;;31.03;44.87
26635;BME280;14490;54.208;37.686;2022-07-10T13:05:56;98290.41;;;30.74;44.56
26635;BME280;14490;54.208;37.686;2022-07-10T13:08:24;98336.69;;;31.09;44.17
26635;BME280;14490;54.208;37.686;2022-07-10T13:10:59;98366.88;;;31.30;44.25
26635;BME280;14490;54.208;37.686;2022-07-10T13:13:30;98312.53;;;31.04;43.83
26635;BME280;14490;54.208;37.686;2022-07-10T13:16:11;98311.31;;;31.20;42.99
26635;BME280;14490;54.208;37.686;2022-07-10T13:18:42;98324.47;;;31.54;42.86
26635;BME280;14490;54.208;37.686;2022-07-10T13:21:11;98380.34;;;31.96;42.68
26635;BME280;14490;54.208;37.686;2022-07-10T13:23:42;98347.03;;;31.86;42.44
26635;BME280;14490;54.208;37.686;2022-07-10T13:26:10;98374.34;;;32.18;42.47
26635;BME280;14490;54.208;37.686;2022-07-10T13:28:44;98368.97;;;32.26;42.50
26635;BME280;14490;54.208;37.686;2022-07-10T13:31:14;98385.41;;;32.57;41.87
26635;BME280;14490;54.208;37.686;2022-07-10T13:33:42;98359.38;;;32.42;41.27
26635;BME280;14490;54.208;37.686;2022-07-10T13:36:10;98336.41;;;32.27;40.51
26635;BME280;14490;54.208;37.686;2022-07-10T13:38:39;98385.31;;;32.67;40.47